| time (UTC) | temp C | wind direction | speed KPH | gust KPH | rain 1hr cm | rain 24hr cm | rain mn cm | humidity % | barometer mb |
| 20260507114530 | 10 | 0 | 1.6 | 6.4 | 0.00 | 0.00 | 0.00 | 80 | 1020.0 |
| 20260507113030 | 10 | 311 | 1.6 | 6.4 | 0.00 | 0.00 | 0.00 | 80 | 1020.0 |
| 20260507111536 | 10 | 0 | 1.6 | 6.4 | 0.00 | 0.00 | 0.00 | 80 | 1020.0 |
| 20260507110032 | 10 | 311 | 3.2 | 6.4 | 0.00 | 0.00 | 0.00 | 80 | 1020.2 |
| 20260507104527 | 10 | 319 | 0.0 | 4.8 | 0.00 | 0.00 | 0.00 | 81 | 1020.4 |
| 20260507103033 | 10 | 319 | 0.0 | 6.4 | 0.00 | 0.00 | 0.00 | 81 | 1020.4 |
| 20260507101530 | 11 | 319 | 4.8 | 11.3 | 0.00 | 0.00 | 0.00 | 81 | 1020.5 |
| 20260507100032 | 11 | 311 | 3.2 | 8.0 | 0.00 | 0.00 | 0.00 | 81 | 1020.7 |
| 20260507094528 | 11 | 311 | 3.2 | 8.0 | 0.00 | 0.00 | 0.00 | 82 | 1020.7 |
| 20260507093040 | 11 | 312 | 1.6 | 6.4 | 0.00 | 0.00 | 0.00 | 81 | 1020.8 |
| 20260507091534 | 11 | 312 | 0.0 | 6.4 | 0.00 | 0.00 | 0.00 | 82 | 1020.8 |
| 20260507090028 | 11 | 312 | 0.0 | 3.2 | 0.00 | 0.00 | 0.00 | 83 | 1020.9 |
| 20260507084528 | 11 | 0 | 0.0 | 3.2 | 0.00 | 0.00 | 0.00 | 83 | 1020.9 |
| 20260507083030 | 11 | 0 | 0.0 | 4.8 | 0.00 | 0.00 | 0.00 | 82 | 1020.9 |
| 20260507081536 | 11 | 312 | 1.6 | 4.8 | 0.00 | 0.00 | 0.00 | 82 | 1021.0 |
| 20260507080030 | 11 | 312 | 0.0 | 3.2 | 0.00 | 0.00 | 0.00 | 83 | 1021.0 |
| 20260507074528 | 11 | 312 | 3.2 | 8.0 | 0.00 | 0.00 | 0.00 | 82 | 1021.0 |
| 20260507073028 | 11 | 304 | 0.0 | 6.4 | 0.00 | 0.00 | 0.00 | 82 | 1021.0 |
| 20260507071530 | 11 | 304 | 3.2 | 8.0 | 0.00 | 0.00 | 0.00 | 82 | 1020.8 |
| 20260507070028 | 11 | 0 | 1.6 | 6.4 | 0.00 | 0.00 | 0.00 | 82 | 1020.9 |
| 20260507064528 | 11 | 300 | 1.6 | 4.8 | 0.00 | 0.00 | 0.00 | 81 | 1021.0 |
| 20260507063033 | 11 | 300 | 3.2 | 6.4 | 0.00 | 0.00 | 0.00 | 81 | 1020.9 |
| 20260507061529 | 12 | 295 | 1.6 | 6.4 | 0.00 | 0.00 | 0.00 | 81 | 1021.0 |
| 20260507060030 | 12 | 291 | 1.6 | 6.4 | 0.00 | 0.00 | 0.00 | 80 | 1021.0 |
| 20260507054527 | 12 | 323 | 1.6 | 6.4 | 0.00 | 0.00 | 0.00 | 80 | 1020.9 |
| 20260507053030 | 12 | 323 | 0.0 | 8.0 | 0.00 | 0.00 | 0.00 | 80 | 1020.8 |
| 20260507051528 | 12 | 331 | 1.6 | 14.5 | 0.00 | 0.00 | 0.00 | 81 | 1020.8 |
| 20260507050035 | 12 | 297 | 4.8 | 11.3 | 0.00 | 0.00 | 0.00 | 81 | 1020.8 |
| 20260507044529 | 12 | 305 | 4.8 | 11.3 | 0.00 | 0.00 | 0.00 | 80 | 1020.8 |
| 20260507043028 | 13 | 313 | 8.0 | 17.7 | 0.00 | 0.00 | 0.00 | 80 | 1020.7 |
| 20260507041543 | 13 | 321 | 8.0 | 14.5 | 0.00 | 0.00 | 0.00 | 80 | 1020.4 |
| 20260507040029 | 13 | 322 | 4.8 | 12.9 | 0.00 | 0.00 | 0.00 | 80 | 1020.3 |
| 20260507034528 | 13 | 302 | 6.4 | 12.9 | 0.00 | 0.00 | 0.00 | 80 | 1020.2 |
| 20260507033032 | 13 | 321 | 6.4 | 12.9 | 0.00 | 0.00 | 0.00 | 80 | 1020.0 |
| 20260507031528 | 14 | 311 | 6.4 | 14.5 | 0.00 | 0.00 | 0.00 | 79 | 1019.9 |
| 20260507030028 | 15 | 319 | 3.2 | 9.7 | 0.00 | 0.00 | 0.00 | 78 | 1019.7 |
| 20260507024529 | 15 | 319 | 4.8 | 9.7 | 0.00 | 0.00 | 0.00 | 77 | 1019.4 |
| 20260507023030 | 16 | 309 | 3.2 | 6.4 | 0.00 | 0.00 | 0.00 | 76 | 1019.3 |
| 20260507021527 | 16 | 322 | 6.4 | 14.5 | 0.00 | 0.00 | 0.00 | 75 | 1019.4 |
| 20260507020030 | 17 | 313 | 6.4 | 14.5 | 0.00 | 0.00 | 0.00 | 74 | 1019.6 |
| 20260507014546 | 17 | 40 | 3.2 | 12.9 | 0.00 | 0.00 | 0.00 | 76 | 1019.7 |
| 20260507013041 | 17 | 315 | 4.8 | 12.9 | 0.00 | 0.00 | 0.00 | 75 | 1019.5 |
| 20260507011537 | 17 | 313 | 1.6 | 9.7 | 0.00 | 0.00 | 0.00 | 74 | 1019.6 |
| 20260507010033 | 17 | 318 | 1.6 | 8.0 | 0.00 | 0.00 | 0.00 | 73 | 1019.5 |
| 20260507004527 | 17 | 313 | 0.0 | 8.0 | 0.00 | 0.00 | 0.00 | 72 | 1019.5 |
| 20260507003029 | 18 | 317 | 1.6 | 9.7 | 0.00 | 0.00 | 0.00 | 71 | 1019.5 |
| 20260507001530 | 18 | 320 | 4.8 | 24.1 | 0.00 | 0.00 | 0.00 | 70 | 1019.6 |
| 20260507000032 | 18 | 287 | 1.6 | 11.3 | 0.00 | 0.00 | 0.00 | 69 | 1019.5 |
| 20260506234530 | 18 | 0 | 1.6 | 8.0 | 0.00 | 0.00 | 0.00 | 69 | 1019.6 |
| 20260506233028 | 18 | 299 | 1.6 | 6.4 | 0.00 | 0.00 | 0.00 | 70 | 1019.7 |
| 20260506231527 | 17 | 305 | 1.6 | 8.0 | 0.00 | 0.00 | 0.00 | 72 | 1019.8 |
| 20260506230031 | 17 | 0 | 1.6 | 8.0 | 0.00 | 0.00 | 0.00 | 75 | 1020.0 |
| 20260506224530 | 17 | 0 | 0.0 | 6.4 | 0.00 | 0.00 | 0.00 | 74 | 1020.0 |
| 20260506223029 | 17 | 319 | 1.6 | 8.0 | 0.00 | 0.00 | 0.00 | 76 | 1020.0 |
| 20260506221527 | 17 | 0 | 1.6 | 8.0 | 0.00 | 0.00 | 0.00 | 77 | 1020.1 |
| 20260506220030 | 17 | 50 | 0.0 | 8.0 | 0.00 | 0.00 | 0.00 | 78 | 1020.0 |
| 20260506214531 | 16 | 0 | 1.6 | 8.0 | 0.00 | 0.00 | 0.00 | 78 | 1020.0 |
| 20260506213030 | 16 | 320 | 1.6 | 8.0 | 0.00 | 0.00 | 0.00 | 78 | 1020.4 |
| 20260506211527 | 17 | 288 | 0.0 | 6.4 | 0.00 | 0.00 | 0.00 | 78 | 1020.5 |
| 20260506210031 | 16 | 0 | 0.0 | 3.2 | 0.00 | 0.00 | 0.00 | 78 | 1020.3 |
| 20260506204528 | 16 | 0 | 0.0 | 6.4 | 0.00 | 0.00 | 0.00 | 80 | 1020.4 |
| 20260506203035 | 16 | 0 | 0.0 | 4.8 | 0.00 | 0.00 | 0.00 | 81 | 1020.5 |
| 20260506201531 | 15 | 0 | 0.0 | 3.2 | 0.00 | 0.00 | 0.00 | 82 | 1020.6 |
| 20260506200029 | 15 | 0 | 0.0 | 6.4 | 0.00 | 0.00 | 0.00 | 82 | 1020.7 |
| 20260506194530 | 15 | 288 | 0.0 | 6.4 | 0.00 | 0.00 | 0.00 | 83 | 1020.7 |
| 20260506193027 | 15 | 0 | 0.0 | 3.2 | 0.00 | 0.00 | 0.00 | 84 | 1020.7 |
| 20260506191555 | 15 | 0 | 0.0 | 3.2 | 0.00 | 0.00 | 0.00 | 84 | 1020.7 |
| 20260506190030 | 14 | 0 | 0.0 | 4.8 | 0.00 | 0.00 | 0.00 | 86 | 1020.7 |
| 20260506184532 | 14 | 0 | 0.0 | 4.8 | 0.00 | 0.00 | 0.00 | 87 | 1020.7 |
| 20260506183030 | 13 | 0 | 0.0 | 3.2 | 0.00 | 0.00 | 0.00 | 88 | 1020.6 |
| 20260506181535 | 13 | 0 | 0.0 | 4.8 | 0.00 | 0.00 | 0.00 | 89 | 1020.7 |
| 20260506180038 | 13 | 0 | 0.0 | 3.2 | 0.00 | 0.00 | 0.00 | 90 | 1020.6 |
| 20260506174529 | 13 | 0 | 0.0 | 1.6 | 0.00 | 0.00 | 0.00 | 91 | 1020.4 |
| 20260506173035 | 13 | 0 | 0.0 | 1.6 | 0.00 | 0.00 | 0.00 | 90 | 1020.3 |
| 20260506171546 | 13 | 0 | 0.0 | 3.2 | 0.00 | 0.00 | 0.00 | 92 | 1020.4 |
| 20260506170033 | 12 | 0 | 0.0 | 4.8 | 0.00 | 0.00 | 0.00 | 94 | 1020.3 |
| 20260506164528 | 12 | 0 | 0.0 | 3.2 | 0.00 | 0.00 | 0.00 | 96 | 1020.2 |
| 20260506163034 | 12 | 0 | 0.0 | 4.8 | 0.00 | 0.00 | 0.00 | 96 | 1020.0 |
| 20260506161539 | 12 | 0 | 0.0 | 3.2 | 0.00 | 0.00 | 0.00 | 97 | 1019.9 |
| 20260506160032 | 11 | 0 | 0.0 | 3.2 | 0.00 | 0.00 | 0.00 | 96 | 1019.6 |
| 20260506154533 | 11 | 0 | 0.0 | 6.4 | 0.00 | 0.00 | 0.00 | 96 | 1020.3 |
| 20260506153028 | 11 | 326 | 3.2 | 12.9 | 0.00 | 0.00 | 0.00 | 95 | 1020.3 |
| 20260506151530 | 11 | 322 | 3.2 | 8.0 | 0.00 | 0.00 | 0.00 | 95 | 1020.2 |
| 20260506150033 | 12 | 322 | 3.2 | 6.4 | 0.00 | 0.00 | 0.00 | 93 | 1020.1 |
| 20260506144529 | 13 | 325 | 0.0 | 4.8 | 0.00 | 0.00 | 0.00 | 88 | 1019.7 |
| 20260506143031 | 12 | 0 | 0.0 | 0.0 | 0.00 | 0.00 | 0.00 | 88 | 1019.5 |
| 20260506141530 | 12 | 0 | 0.0 | 0.0 | 0.00 | 0.00 | 0.00 | 89 | 1019.4 |
| 20260506140032 | 12 | 0 | 0.0 | 0.0 | 0.00 | 0.00 | 0.00 | 89 | 1019.4 |
| 20260506134605 | 12 | 0 | 0.0 | 0.0 | 0.00 | 0.00 | 0.00 | 88 | 1019.2 |
| 20260506133030 | 12 | 0 | 0.0 | 3.2 | 0.00 | 0.00 | 0.00 | 90 | 1019.0 |
| 20260506131529 | 12 | 0 | 0.0 | 0.0 | 0.00 | 0.00 | 0.00 | 88 | 1019.1 |
| 20260506130028 | 12 | 0 | 0.0 | 0.0 | 0.00 | 0.00 | 0.00 | 89 | 1018.8 |
| 20260506124530 | 12 | 0 | 0.0 | 1.6 | 0.00 | 0.00 | 0.00 | 88 | 1018.8 |
| 20260506123030 | 12 | 0 | 0.0 | 1.6 | 0.00 | 0.00 | 0.00 | 88 | 1018.9 |
| 20260506121527 | 12 | 325 | 0.0 | 4.8 | 0.00 | 0.00 | 0.00 | 88 | 1018.7 |
| 20260506120029 | 12 | 325 | 0.0 | 3.2 | 0.00 | 0.00 | 0.00 | 88 | 1018.5 |